Převážně zataženo
Zataženo
Zataženo s lehkým deštěm
Zataženo
Zataženo
Zataženo
Zataženo
(°C)
13°
12°
12°
11°
(°C)
V
VJV
VJV
VJV
VJV
SV
S
(km/h)
11-12
12-14
11-17
8-19
6-18
5-16
5-7
(mm)
0
0
0.1
0
0
0
0
(%)
7
7
25
12
12
5
0

Sluneční výška

/ 19°
sun-icon
UV 2
08:02
18:35
Ubývající měsíc (199°)
20:15
09:15

METAR pro Alcantarilla (LERI)

Čas Podmínky Teplota/
Rosný bod
Vítr Viditelnost Počasí Oblaky Tlak Změna Nezpracované
VFR 13°C / 4°C 10º variable 320º to 050º 6kt >10km - Broken Clouds 3800ft 1019 No Significant change LERI 071500Z 01006KT 320V050 9999 BKN038 13/04 Q1019 NOSIG
VFR 13°C / 3°C 360º variable 320º to 060º 4kt >10km - Broken Clouds 4000ft 1019 No Significant change LERI 071430Z 36004KT 320V060 9999 BKN040 13/03 Q1019 NOSIG
VFR 13°C / 3°C 50º variable 360º to 100º 3kt >10km Light Rain 1.00mm precipitation Vertical Visibility of 0ft. 1019 No Significant change LERI 071400Z 05003KT 360V100 9999 -RA BKN040 13/03 Q1019 NOSIG
VFR 14°C / 3°C variable 2kt >10km - Broken Clouds 3900ft 1020 No Significant change LERI 071330Z VRB02KT 9999 BKN039 14/03 Q1020 NOSIG
VFR 13°C / 3°C 360º variable 320º to 090º 4kt >10km - Broken Clouds 3900ft 1020 No Significant change LERI 071300Z 36004KT 320V090 9999 BKN039 13/03 Q1020 NOSIG
VFR 13°C / 3°C variable 5kt >10km - Few Clouds 4200ft
Scattered Clouds 5300ft
1021 No Significant change LERI 071230Z VRB05KT 9999 FEW042 SCT053 13/03 Q1021 NOSIG
VFR 13°C / 3°C 350º variable 320º to 030º 7kt >10km - Broken Clouds 4600ft 1021 No Significant change LERI 071200Z 35007KT 320V030 9999 BKN046 13/03 Q1021 NOSIG
VFR 14°C / 3°C variable 5kt >10km - Broken Clouds 4600ft 1022 No Significant change LERI 071130Z VRB05KT 9999 BKN046 14/03 Q1022 NOSIG
VFR 13°C / 3°C 360º variable 290º to 050º 5kt >10km - Scattered Clouds 4500ft 1022 No Significant change LERI 071100Z 36005KT 290V050 9999 SCT045 13/03 Q1022 NOSIG
VFR 12°C / 3°C 10º variable 320º to 060º 5kt >10km - Few Clouds 3700ft 1022 No Significant change LERI 071030Z 01005KT 320V060 9999 FEW037 12/03 Q1022 NOSIG
VFR 11°C / 4°C variable 2kt >10km - Scattered Clouds 3900ft 1022 No Significant change LERI 071000Z VRB02KT 9999 SCT039 11/04 Q1022 NOSIG
VFR 10°C / 4°C 240º variable 200º to 270º 3kt >10km - Broken Clouds 3900ft 1022 No Significant change LERI 070930Z 24003KT 200V270 9999 BKN039 10/04 Q1022 NOSIG
VFR 9°C / 4°C 240º variable 190º to 280º 3kt >10km - Scattered Clouds 3900ft 1022 No Significant change LERI 070900Z 24003KT 190V280 9999 SCT039 09/04 Q1022 NOSIG
VFR 8°C / 5°C 210º 3kt >10km - Few Clouds 3000ft
Scattered Clouds 4000ft
1022 No Significant change LERI 070830Z 21003KT 9999 FEW030 SCT040 08/05 Q1022 NOSIG
VFR 8°C / 5°C variable 1kt >10km - Few Clouds 3000ft
Broken Clouds 4200ft
1022 No Significant change LERI 070800Z VRB01KT 9999 FEW030 BKN042 08/05 Q1022 NOSIG
VFR 7°C / 5°C 220º 3kt >10km - Few Clouds 3000ft
Broken Clouds 4100ft
1022 No Significant change LERI 070730Z 22003KT 9999 FEW030 BKN041 07/05 Q1022 NOSIG
VFR 7°C / 4°C variable 0kt >10km - Scattered Clouds 3000ft
Broken Clouds 3800ft
1022 No Significant change LERI 070630Z 00000KT 9999 SCT030 BKN038 07/04 Q1022 NOSIG
VFR 7°C / 5°C 210º 3kt >10km - Broken Clouds 3800ft 1022 No Significant change LERI 070600Z 21003KT 9999 BKN038 07/05 Q1022 NOSIG
VFR 10°C / 6°C 70º variable 030º to 100º 9kt >10km - Scattered Clouds 1800ft
Broken Clouds 5000ft
1024 No Significant change LERI 061800Z 07009KT 030V100 9999 SCT018 BKN050 10/06 Q1024 NOSIG
VFR 10°C / 7°C 80º 11kt >10km - Scattered Clouds 1800ft
Broken Clouds 5000ft
1024 No Significant change LERI 061730Z 08011KT 9999 SCT018 BKN050 10/07 Q1024 NOSIG
VFR 10°C / 7°C 70º 11kt >10km - Scattered Clouds 1400ft
Broken Clouds 4500ft
1023 No Significant change LERI 061700Z 07011KT 9999 SCT014 BKN045 10/07 Q1023 NOSIG
VFR 9°C / 7°C 70º variable 030º to 100º 13kt >10km - Scattered Clouds 1200ft
Broken Clouds 4000ft
1023 No Significant change LERI 061630Z 07013KT 030V100 9999 SCT012 BKN040 09/07 Q1023 NOSIG
VFR 10°C / 7°C 70º 17kt >10km - Scattered Clouds 1100ft
Broken Clouds 3700ft
1023 No Significant change LERI 061600Z 07017KT 9999 SCT011 BKN037 10/07 Q1023 NOSIG
VFR 10°C / 8°C 70º 16kt >10km - Scattered Clouds 1100ft
Scattered Clouds 3700ft
1023 No Significant change LERI 061530Z 07016KT 9999 SCT011 SCT037 10/08 Q1023 NOSIG

VFR

13°C / 4°C

[Víc]
Vítr 10º variable 320º to 050º 6kt
Viditelnost >10km
Počasí -
Oblaky Broken Clouds 3800ft
Tlak 1019
Změna No Significant change
Nezpracované LERI 071500Z 01006KT 320V050 9999 BKN038 13/04 Q1019 NOSIG

VFR

13°C / 3°C

[Víc]
Vítr 360º variable 320º to 060º 4kt
Viditelnost >10km
Počasí -
Oblaky Broken Clouds 4000ft
Tlak 1019
Změna No Significant change
Nezpracované LERI 071430Z 36004KT 320V060 9999 BKN040 13/03 Q1019 NOSIG

VFR

13°C / 3°C

[Víc]
Vítr 50º variable 360º to 100º 3kt
Viditelnost >10km
Počasí Light Rain 1.00mm precipitation
Oblaky Vertical Visibility of 0ft.
Tlak 1019
Změna No Significant change
Nezpracované LERI 071400Z 05003KT 360V100 9999 -RA BKN040 13/03 Q1019 NOSIG

VFR

14°C / 3°C

[Víc]
Vítr variable 2kt
Viditelnost >10km
Počasí -
Oblaky Broken Clouds 3900ft
Tlak 1020
Změna No Significant change
Nezpracované LERI 071330Z VRB02KT 9999 BKN039 14/03 Q1020 NOSIG

VFR

13°C / 3°C

[Víc]
Vítr 360º variable 320º to 090º 4kt
Viditelnost >10km
Počasí -
Oblaky Broken Clouds 3900ft
Tlak 1020
Změna No Significant change
Nezpracované LERI 071300Z 36004KT 320V090 9999 BKN039 13/03 Q1020 NOSIG

VFR

13°C / 3°C

[Víc]
Vítr variable 5kt
Viditelnost >10km
Počasí -
Oblaky Few Clouds 4200ft
Scattered Clouds 5300ft
Tlak 1021
Změna No Significant change
Nezpracované LERI 071230Z VRB05KT 9999 FEW042 SCT053 13/03 Q1021 NOSIG

VFR

13°C / 3°C

[Víc]
Vítr 350º variable 320º to 030º 7kt
Viditelnost >10km
Počasí -
Oblaky Broken Clouds 4600ft
Tlak 1021
Změna No Significant change
Nezpracované LERI 071200Z 35007KT 320V030 9999 BKN046 13/03 Q1021 NOSIG

VFR

14°C / 3°C

[Víc]
Vítr variable 5kt
Viditelnost >10km
Počasí -
Oblaky Broken Clouds 4600ft
Tlak 1022
Změna No Significant change
Nezpracované LERI 071130Z VRB05KT 9999 BKN046 14/03 Q1022 NOSIG

VFR

13°C / 3°C

[Víc]
Vítr 360º variable 290º to 050º 5kt
Viditelnost >10km
Počasí -
Oblaky Scattered Clouds 4500ft
Tlak 1022
Změna No Significant change
Nezpracované LERI 071100Z 36005KT 290V050 9999 SCT045 13/03 Q1022 NOSIG

VFR

12°C / 3°C

[Víc]
Vítr 10º variable 320º to 060º 5kt
Viditelnost >10km
Počasí -
Oblaky Few Clouds 3700ft
Tlak 1022
Změna No Significant change
Nezpracované LERI 071030Z 01005KT 320V060 9999 FEW037 12/03 Q1022 NOSIG

VFR

11°C / 4°C

[Víc]
Vítr variable 2kt
Viditelnost >10km
Počasí -
Oblaky Scattered Clouds 3900ft
Tlak 1022
Změna No Significant change
Nezpracované LERI 071000Z VRB02KT 9999 SCT039 11/04 Q1022 NOSIG

VFR

10°C / 4°C

[Víc]
Vítr 240º variable 200º to 270º 3kt
Viditelnost >10km
Počasí -
Oblaky Broken Clouds 3900ft
Tlak 1022
Změna No Significant change
Nezpracované LERI 070930Z 24003KT 200V270 9999 BKN039 10/04 Q1022 NOSIG

VFR

9°C / 4°C

[Víc]
Vítr 240º variable 190º to 280º 3kt
Viditelnost >10km
Počasí -
Oblaky Scattered Clouds 3900ft
Tlak 1022
Změna No Significant change
Nezpracované LERI 070900Z 24003KT 190V280 9999 SCT039 09/04 Q1022 NOSIG

VFR

8°C / 5°C

[Víc]
Vítr 210º 3kt
Viditelnost >10km
Počasí -
Oblaky Few Clouds 3000ft
Scattered Clouds 4000ft
Tlak 1022
Změna No Significant change
Nezpracované LERI 070830Z 21003KT 9999 FEW030 SCT040 08/05 Q1022 NOSIG

VFR

8°C / 5°C

[Víc]
Vítr variable 1kt
Viditelnost >10km
Počasí -
Oblaky Few Clouds 3000ft
Broken Clouds 4200ft
Tlak 1022
Změna No Significant change
Nezpracované LERI 070800Z VRB01KT 9999 FEW030 BKN042 08/05 Q1022 NOSIG

VFR

7°C / 5°C

[Víc]
Vítr 220º 3kt
Viditelnost >10km
Počasí -
Oblaky Few Clouds 3000ft
Broken Clouds 4100ft
Tlak 1022
Změna No Significant change
Nezpracované LERI 070730Z 22003KT 9999 FEW030 BKN041 07/05 Q1022 NOSIG

VFR

7°C / 4°C

[Víc]
Vítr variable 0kt
Viditelnost >10km
Počasí -
Oblaky Scattered Clouds 3000ft
Broken Clouds 3800ft
Tlak 1022
Změna No Significant change
Nezpracované LERI 070630Z 00000KT 9999 SCT030 BKN038 07/04 Q1022 NOSIG

VFR

7°C / 5°C

[Víc]
Vítr 210º 3kt
Viditelnost >10km
Počasí -
Oblaky Broken Clouds 3800ft
Tlak 1022
Změna No Significant change
Nezpracované LERI 070600Z 21003KT 9999 BKN038 07/05 Q1022 NOSIG

VFR

10°C / 6°C

[Víc]
Vítr 70º variable 030º to 100º 9kt
Viditelnost >10km
Počasí -
Oblaky Scattered Clouds 1800ft
Broken Clouds 5000ft
Tlak 1024
Změna No Significant change
Nezpracované LERI 061800Z 07009KT 030V100 9999 SCT018 BKN050 10/06 Q1024 NOSIG

VFR

10°C / 7°C

[Víc]
Vítr 80º 11kt
Viditelnost >10km
Počasí -
Oblaky Scattered Clouds 1800ft
Broken Clouds 5000ft
Tlak 1024
Změna No Significant change
Nezpracované LERI 061730Z 08011KT 9999 SCT018 BKN050 10/07 Q1024 NOSIG

VFR

10°C / 7°C

[Víc]
Vítr 70º 11kt
Viditelnost >10km
Počasí -
Oblaky Scattered Clouds 1400ft
Broken Clouds 4500ft
Tlak 1023
Změna No Significant change
Nezpracované LERI 061700Z 07011KT 9999 SCT014 BKN045 10/07 Q1023 NOSIG

VFR

9°C / 7°C

[Víc]
Vítr 70º variable 030º to 100º 13kt
Viditelnost >10km
Počasí -
Oblaky Scattered Clouds 1200ft
Broken Clouds 4000ft
Tlak 1023
Změna No Significant change
Nezpracované LERI 061630Z 07013KT 030V100 9999 SCT012 BKN040 09/07 Q1023 NOSIG

VFR

10°C / 7°C

[Víc]
Vítr 70º 17kt
Viditelnost >10km
Počasí -
Oblaky Scattered Clouds 1100ft
Broken Clouds 3700ft
Tlak 1023
Změna No Significant change
Nezpracované LERI 061600Z 07017KT 9999 SCT011 BKN037 10/07 Q1023 NOSIG

VFR

10°C / 8°C

[Víc]
Vítr 70º 16kt
Viditelnost >10km
Počasí -
Oblaky Scattered Clouds 1100ft
Scattered Clouds 3700ft
Tlak 1023
Změna No Significant change
Nezpracované LERI 061530Z 07016KT 9999 SCT011 SCT037 10/08 Q1023 NOSIG

TAF pro Alcantarilla (LERI)

From till


Maximum Temperature 15ºC on . Minimum Temperature 5ºC on .
From till Wind 340º 5kt. Visibility 10km or more. Few Clouds 3500ft.

Nezpracované: TAF LERI 071100Z 0712/0812 34005KT 9999 FEW035 TX15/0715Z TN05/0806Z

Radar a krátkodobá předpověď srážek pro Alcantarilla

Mrholení
Slabé
Střední
Silné
Velmi silné
Kroupy

Značka lokality je umístněna na Alcantarilla. Singular: Tato animace ukazuje srážky zaznamenané radarem za poslední 1 hodinu. Mrholení nebo slabé sněžení může být pro radar neviditelné. Intenzita srážek je barevně označena od světle modré po oranžovou.
Zdroj radarových dat: AEMET.

Aktuální snímky ze satelitu a srážky pro Alcantarilla, Španělsko

Značka polohy je umístěna na Alcantarilla. [Víc]

Satelitní snímek v reálném čase kombinuje viditelné světlo během dne s infračerveným zářením během noci. V noci není obraz tmavý, protože infračervené záření dokáže detekovat teplotní rozdíly. Nízká oblačnost a mlha se bohužel těžko odlišují od pozemních teplot, a proto mohou být během noci téměř neviditelné. Satelitní snímky z Meteosatu pro Evropu jsou aktualizovány v reálném čase každých 5 minut. Snímky z GOES-16/GOES-17 (Severní a Jižní Amerika) a Himawari (Asie) jsou aktualizovány) každých 10 minut.

Srážky se odhadují z radarů a družic. Odhady srážek ze satelitů jsou v noci méně přesné než ve dne. Oranžové křížky označují místa, kde byl zaznamenán blesk (za Evropa).

Copyright 2023 EUMETSAT / meteoblue. Údaje o blescích poskytuje nowcast.

Zpět nahoru